Dewy Rose, Georgia
Current Conditions -  °F | °C
As of 9:51 AM on Thursday 23 Oct 2014 (Local Time) from KAHN Reporting Station
Clear Clear  
Wind Chill: 51°   Ceiling: Unl
Heat Index: 51°   Visibility: 10mi
Dew Point: 43°   Wind: 3mph
Humidity: 74%   Direction: 310°NW
Pressure: 30.13"   Gusts: NA
Location:  34.17°N, 82.95°W
Report Text: KAHN 231351Z 31003KT 10SM CLR 11/06 A3013 RMK AO2 SLP204 T01060061
Loading
Personal Weather Stations






























Interactive Weather Map
Tropical Storm Tracking
New forecast layout! Learn more

10-Day Weather Forecast

Advertisements
Track Severe Weather on mobile